Metar-ilmailun säätiedot     EFOU Oulu Airport
Lämpötila
1°C Lämpötila
-1°C Kastepiste
87% Kosteus



Tuuli
4 M/S
9 MPH
14 KM/H
8 KTS



230°
LO
Nykyiset olosuhteet

Puolipilvistä Puolipilvistä
Paine 999.92 (hPa) - 29.53 (inHg)
Näkyvyys 6.2 (maili) - 10 (km)
Lentokenttä
Lentokentän koodi EFOU

Sijainti: Oulu Airport
Etäisyys:: 85 (km)

Metar:
EFOU 181850Z AUTO 23008KT 200V260 9999 FEW010 BKN040 BKN050 01/M01 Q1000

Aika: 18-01-2022 20:50 EET